»·PEaware :: N2RF KRNO-KSMO

N2RF :: KRNO-KSMO

FLIGHT INFORMATION

Flight Status: Arrived
Operator: Privately registered:
United States
More flights under this callsign
Pilot: Max W. (2591)
Aircraft: BEECH AIRCRAFT PREMIER
(PRM1)
More flights by this aircraft type
Origin: KRNO Reno/Tahoe Intl
United States
Destination: KSMO Santa Monica Mun
United States
More flights between these airports :: More routes between these airports
Route: +RENO9 FMG J5 EHF DCT FIM FERN7
File this flight plan on PilotEdge
Remarks:
Altitude:
(Current/Filed)
41,000ft
Speed:
(Current/Filed)
450kts
Departed: 16-Nov-20 07:23 PM
Arrived: 16-Nov-20 08:31 PM
Distance/Time
Traveled:
335nm/1:08
Distance/Time
To Go:
Arrived

Flight Plot

Page will automatically refresh every two minutes.

Flight plan parsing failed; only flown route is shown


Map Options




Map Legend


Flown Route
Filed Route
Departure Airport
Arrival Airport
Navaid (VOR, NDB)
Fix

Horizontal Profiles

Position Reports

Time Latitude Longitude Heading Altitude Ground
Speed
16-Nov-20 18:54 39.499261 -119.763649 270 4422ft 0kts
16-Nov-20 18:55 39.499261 -119.763649 270 4422ft 0kts
16-Nov-20 18:56 39.499261 -119.763649 270 4422ft 0kts
16-Nov-20 18:57 39.499261 -119.763649 270 4422ft 0kts
16-Nov-20 18:58 39.499261 -119.763649 270 4422ft 0kts
16-Nov-20 18:59 39.499261 -119.763649 270 4422ft 0kts
16-Nov-20 19:00 39.499261 -119.763649 270 4422ft 0kts
16-Nov-20 19:01 39.499261 -119.763649 270 4422ft 0kts
16-Nov-20 19:02 39.499261 -119.763649 270 4422ft 0kts
16-Nov-20 19:03 39.499261 -119.763649 270 4422ft 0kts
16-Nov-20 19:04 39.499261 -119.763649 270 4422ft 0kts
16-Nov-20 19:05 39.499261 -119.763649 270 4422ft 0kts
16-Nov-20 19:06 39.499261 -119.763649 270 4422ft 0kts
16-Nov-20 19:07 39.499261 -119.763649 270 4422ft 0kts
16-Nov-20 19:08 39.499261 -119.763649 269 4422ft 0kts
16-Nov-20 19:09 39.499261 -119.763649 270 4422ft 0kts
16-Nov-20 19:10 39.499941 -119.764882 269 4422ft 0kts
16-Nov-20 19:11 39.499941 -119.764882 269 4422ft 0kts
16-Nov-20 19:12 39.503717 -119.765746 359 4422ft 12kts
16-Nov-20 19:13 39.507173 -119.765713 0 4422ft 13kts
16-Nov-20 19:14 39.511045 -119.765209 359 4422ft 3kts
16-Nov-20 19:15 39.513744 -119.765639 271 4422ft 8kts
16-Nov-20 19:16 39.513745 -119.765668 271 4422ft 0kts
16-Nov-20 19:17 39.513745 -119.765668 271 4422ft 0kts
16-Nov-20 19:18 39.513745 -119.765668 271 4422ft 0kts
16-Nov-20 19:19 39.513745 -119.765668 271 4422ft 0kts
16-Nov-20 19:20 39.513745 -119.765668 271 4422ft 0kts
16-Nov-20 19:21 39.513746 -119.765712 271 4422ft 5kts
16-Nov-20 19:22 39.486422 -119.766666 179 5314ft 181kts
16-Nov-20 19:23 39.425516 -119.764151 176 7907ft 257kts
16-Nov-20 19:24 39.358239 -119.764087 177 12031ft 242kts
16-Nov-20 19:25 39.292241 -119.750542 167 15246ft 250kts
16-Nov-20 19:26 39.224243 -119.726472 168 17996ft 260kts
16-Nov-20 19:27 39.153604 -119.702292 168 20487ft 267kts
16-Nov-20 19:28 39.080985 -119.677581 168 22696ft 275kts
16-Nov-20 19:29 39.006453 -119.652269 168 24641ft 283kts
16-Nov-20 19:30 38.928691 -119.625926 168 26271ft 296kts
16-Nov-20 19:31 38.850276 -119.599347 168 28306ft 290kts
16-Nov-20 19:32 38.770621 -119.572535 168 29650ft 305kts
16-Nov-20 19:33 38.686728 -119.544305 168 30974ft 316kts
16-Nov-20 19:34 38.601474 -119.522075 176 32537ft 311kts
16-Nov-20 19:35 38.517701 -119.510184 176 33559ft 322kts
16-Nov-20 19:36 38.427907 -119.497531 176 34608ft 330kts
16-Nov-20 19:37 38.335750 -119.484516 176 35588ft 336kts
16-Nov-20 19:38 38.249340 -119.472240 178 37372ft 313kts
16-Nov-20 19:39 38.161536 -119.459996 178 38162ft 320kts
16-Nov-20 19:40 38.077387 -119.448089 179 39523ft 303kts
16-Nov-20 19:41 37.992852 -119.436366 179 40145ft 308kts
16-Nov-20 19:42 37.906940 -119.424380 179 40734ft 313kts
16-Nov-20 19:43 37.821245 -119.412492 179 41044ft 325kts
16-Nov-20 19:44 37.728454 -119.399664 179 41036ft 347kts
16-Nov-20 19:45 37.630545 -119.386064 179 41034ft 361kts
16-Nov-20 19:46 37.529647 -119.372088 178 41033ft 371kts
16-Nov-20 19:47 37.426307 -119.357878 178 41055ft 379kts
16-Nov-20 19:48 37.323479 -119.343867 178 41027ft 387kts
16-Nov-20 19:49 37.215958 -119.328940 179 40998ft 392kts
16-Nov-20 19:50 37.106878 -119.314347 179 40913ft 398kts
16-Nov-20 19:51 36.996718 -119.298719 179 40909ft 400kts
16-Nov-20 19:52 36.888652 -119.284406 179 40910ft 403kts
16-Nov-20 19:53 36.777016 -119.269267 179 40918ft 404kts
16-Nov-20 19:54 36.665238 -119.253875 179 40925ft 406kts
16-Nov-20 19:55 36.552868 -119.238836 179 40920ft 406kts
16-Nov-20 19:56 36.439785 -119.224042 179 40921ft 412kts
16-Nov-20 19:57 36.325308 -119.208575 179 40910ft 416kts
16-Nov-20 19:58 36.210007 -119.193250 179 40904ft 420kts
16-Nov-20 19:59 36.093601 -119.177528 178 40670ft 429kts
16-Nov-20 20:00 35.971768 -119.161186 179 38884ft 438kts
16-Nov-20 20:01 35.859063 -119.146261 178 37117ft 415kts
16-Nov-20 20:02 35.752559 -119.132555 177 35381ft 397kts
16-Nov-20 20:03 35.645307 -119.118339 177 33572ft 381kts
16-Nov-20 20:04 35.538240 -119.104382 176 31563ft 416kts
16-Nov-20 20:05 35.423079 -119.086579 172 29038ft 403kts
16-Nov-20 20:06 35.313752 -119.064376 172 26427ft 391kts
16-Nov-20 20:08 35.214703 -119.044850 172 23388ft 339kts
16-Nov-20 20:09 35.124885 -119.027636 172 20234ft 323kts
16-Nov-20 20:10 35.037659 -119.010918 171 16713ft 315kts
16-Nov-20 20:11 34.952742 -118.994646 171 13180ft 306kts
16-Nov-20 20:12 34.884539 -118.981567 170 10280ft 296kts
16-Nov-20 20:13 34.808911 -118.967243 170 9960ft 276kts
16-Nov-20 20:14 34.734206 -118.953018 170 9944ft 269kts
16-Nov-20 20:15 34.660444 -118.938934 170 9945ft 267kts
16-Nov-20 20:16 34.587016 -118.924953 170 9951ft 266kts
16-Nov-20 20:17 34.514014 -118.911077 170 9957ft 266kts
16-Nov-20 20:18 34.441100 -118.897290 170 9963ft 265kts
16-Nov-20 20:19 34.368956 -118.879822 150 9970ft 264kts
16-Nov-20 20:20 34.330497 -118.805392 114 9628ft 261kts
16-Nov-20 20:21 34.303524 -118.725471 113 8620ft 258kts
16-Nov-20 20:22 34.276179 -118.645559 113 7918ft 251kts
16-Nov-20 20:23 34.248814 -118.567301 113 6290ft 251kts
16-Nov-20 20:24 34.221189 -118.490104 113 4683ft 251kts
16-Nov-20 20:25 34.193029 -118.411209 113 3092ft 261kts
16-Nov-20 20:26 34.154154 -118.349292 161 2964ft 232kts
16-Nov-20 20:26 34.102772 -118.357135 204 2841ft 223kts
16-Nov-20 20:27 34.063724 -118.394617 225 1653ft 136kts
16-Nov-20 20:28 34.038705 -118.424197 224 859ft 120kts
16-Nov-20 20:29 34.016613 -118.450376 223 139ft 68kts
16-Nov-20 20:31 34.016292 -118.452826 306 139ft 0kts

Navigation Log

Ident Type
Flight plan parsing failed, navigation log unavailable